Airfield :
LOGIN :

Register | Disclaimer

   EN    FR    IT 

 










Legend :    VFR   Marginal VFR   IFR   Intensive IFR   Very Intensive IFR
Visi :
Ceiling :
>= 8 km
>= 3000ft
5 to 8 km
1000 to 3000 ft
1500m to 5 km
500 to 1000 ft
800 to 1500m
200 to 500 ft
< 800m
< 200 ft
Symbols :   Thunderstorms  Fog  Heavy snow  Heavy precipitations  Wind > 20 kt
SIGMETs :     Misc.  Thunderstorms  Icing  Turbulence  Mountain Waves  Volcanic Ashes






- Airport Elevation : 1416 ft
- IATA code : ZRH


LSZH - Zurich

CURRENT METAR :
  • 050950Z 07008KT 020V110 9999 FEW030 19/11 Q1019 NOSIG

EXPIRED METARs :
  • 050920Z 04009KT 010V080 9999 FEW025 18/11 Q1019 NOSIG
  • 050850Z 07005KT 010V120 9999 FEW018 17/12 Q1019 NOSIG
  • 050820Z 04005KT 340V080 9999 FEW012 16/12 Q1019 NOSIG
  • 050750Z 03006KT 9999 FEW015 14/11 Q1020 NOSIG
  • 050720Z 09005KT 9999 FEW006 SCT009 14/12 Q1020 NOSIG

TAF TAF LSZH
Valid from the 05 at 09:00 until the 06 at 15:00 UTC


050825Z 0509/0615 03006KT 9999 FEW015 TX23/0515Z TN10/0604Z TX27/0615Z
BECMG 0509/0511 05010KT CAVOK
TEMPO 0511/0516 9999 FEW050
BECMG 0518/0521 VRB03KT
PROB40 0602/0605 5000 MIFG NSC
PROB30 0603/0606 2500 BCFG SCT002
BECMG 0607/0610 06006KT
ATIS : +41 43 816 2295 (DEP) +41 43 816 2294 (ARR)



MET'MAP, your aeronautical weather chart ! - Copyright ORBIFLY December 2007 - Disclaimer

ORBIFLY MET'MAP TEAM :

Programming & Development : Alexandra Zaïnal
Concept & original design : Baudouin d'Aumeries
Assistance for programming : Marc-Olivier Méhu
Technical & hardware support : Manuel Goepfert

Contact : metmap@orbifly.com




SOURCES & CREDITS :

   NOAA